Glennallen, AK (99588)

5:23 PM AKDT on August 30, 2014 (GMT -0800)
AKDOT Glenn Highway @ MP 176.6 | Change Station
CLOSE
Current Station
Personal Weather Station
Location: Glennallen, AK
Elevation: 2112 ft
Nearby Weather Stations

Elev 2112 ft 62.11 °N, 145.85 °W | Updated 28 minutes ago

Mostly Cloudy
Mostly Cloudy
51 °F
Feels Like 51 °F
N
1
Wind Variable Wind from South
Gusts 3.0 mph

Today
High -- | Low -- °F
--% Chance of Precip.
Yesterday
High -- | Low -- °F
Precip. -- in
6:29 AM 9:00 PM
Waxing Crescent, 26% visible
Pressure 29.62 in
Visibility 10.0 miles
Clouds Few 5500 ft
Mostly Cloudy 8000 ft
Dew Point 31 °F
Humidity 46%
Rainfall -999.00 in
Snow Depth Not available.
UV 1 out of 12
Pollen Not available.
Air Quality Not available.
Flu Activity Not available.
METAR PAGK 310053Z AUTO 00000KT 10SM FEW055 BKN080 12/03 A2958 RMK AO2 SLP028 T01220028 TSNO

More Conditions Fewer Conditions

Pressure 29.62 in
Visibility 10.0 miles
Clouds Few 5500 ft
Mostly Cloudy 8000 ft
Dew Point 31 °F
Humidity 46%
Rainfall -999.00 in
Snow Depth Not available.
UV 1 out of 12
Pollen Not available.
Air Quality Not available.
Flu Activity Not available.
METAR PAGK 310053Z AUTO 00000KT 10SM FEW055 BKN080 12/03 A2958 RMK AO2 SLP028 T01220028 TSNO

More Conditions Fewer Conditions

10-Day Weather Forecast

Almanac

Astronomy

Aug. 30, 2014 Rise Set
Actual Time 6:29 AM AKDT 9:00 PM AKDT
Civil Twilight 5:40 AM AKDT 9:49 PM AKDT
Nautical Twilight 4:33 AM AKDT 10:55 PM AKDT
Astronomical Twilight 2:47 AM AKDT 12:34 AM AKDT
Moon 1:05 PM AKDT (8/30) 9:57 PM AKDT (8/30)
Length of Visible Light 16h 08m
Length of Day
14h 30m
Tomorrow will be 5m 52s shorter.
Waxing Crescent, 26% of the Moon is Illuminated
Today
Waxing Crescent
Sep 2
First Quarter
Sep 8
Full
Sep 15
Last Quarter
Sep 24
New

Today's Extremes

State Highs State Lows

Community

WunderPhotos

Upload Photos

1,748,710 photos uploaded!

Nearby

Snow Depth

Station Depth Elevation
Upper Tsaina River 0 in 1750 ft
Susitna Valley High 1 in 375 ft
Indian Pass 1 in 2300 ft
Turnagain Pass 0 in 1880 ft
Point Mackenzie 1 in 200 ft

Earthquake Activity

City Distance Mag. Time & Date
No recent earthquake activity has been reported nearby.
Minimum magnitude displayed is 2.5.

Coastal Water Temperatures

Place Temperature
No Stations Reporting

Nearby Weather Stations